Time;durP1;ratioP1;P1;durP2;ratioP2;P2;SDS_P1;SDS_P2;PMS_P1;PMS_P2;Temp;Humidity;BMP_temperature;BMP_pressure;BME280_temperature;BME280_humidity;BME280_pressure;Samples;Min_cycle;Max_cycle;Signal;HPM_P1;HPM_P2
2020/12/29 00:01:31;;;;;;;1.33;0.85;;;;;;;2.19;nan;93115.28;4937988;28;20237;-66
2020/12/29 00:03:58;;;;;;;1.55;1.00;;;;;;;2.10;nan;93115.25;4938013;28;20619;-67
2020/12/29 00:06:25;;;;;;;3.53;1.38;;;;;;;2.06;nan;93109.59;4937912;28;20619;-70
2020/12/29 00:08:53;;;;;;;1.75;1.52;;;;;;;2.04;nan;93111.47;4937941;28;20294;-70
2020/12/29 00:11:19;;;;;;;1.17;0.90;;;;;;;2.08;nan;93107.72;4937430;28;20697;-68
2020/12/29 00:13:46;;;;;;;2.30;1.13;;;;;;;2.11;nan;93120.28;4938983;28;20284;-66
2020/12/29 00:16:13;;;;;;;2.38;1.35;;;;;;;2.07;nan;93106.06;4939073;28;20203;-66
2020/12/29 00:18:40;;;;;;;1.75;1.30;;;;;;;2.05;nan;93102.84;4938313;28;20207;-66
2020/12/29 00:21:06;;;;;;;1.25;1.10;;;;;;;2.02;nan;93100.56;4937515;28;20594;-66
2020/12/29 00:23:33;;;;;;;1.40;1.27;;;;;;;2.07;nan;93103.50;4935948;28;20227;-67
2020/12/29 00:26:01;;;;;;;1.38;1.15;;;;;;;2.08;nan;93101.78;4937523;28;20693;-67
2020/12/29 00:28:28;;;;;;;1.75;1.17;;;;;;;1.96;nan;93110.50;4937959;28;20617;-67
2020/12/29 00:30:57;;;;;;;1.23;0.90;;;;;;;1.97;nan;93110.38;4935424;28;20646;-66
2020/12/29 00:33:24;;;;;;;1.60;1.40;;;;;;;1.83;nan;93100.47;4938760;28;20250;-69
2020/12/29 00:35:51;;;;;;;4.43;2.00;;;;;;;1.91;nan;93100.63;4943241;28;20199;-66
2020/12/29 00:38:17;;;;;;;2.08;1.60;;;;;;;1.80;nan;93100.75;4934892;28;20319;-67
2020/12/29 00:40:44;;;;;;;3.60;1.67;;;;;;;1.89;nan;93096.56;4938481;28;20661;-66
2020/12/29 00:43:12;;;;;;;2.85;1.55;;;;;;;1.92;nan;93099.69;4935984;28;20318;-68
2020/12/29 00:45:39;;;;;;;2.10;1.55;;;;;;;1.86;nan;93104.53;4925509;28;20581;-66
2020/12/29 00:48:06;;;;;;;2.45;1.85;;;;;;;1.89;nan;93102.53;4937469;28;20738;-67
2020/12/29 00:50:33;;;;;;;10.57;2.38;;;;;;;1.88;nan;93111.16;4937075;28;20966;-67
2020/12/29 00:53:00;;;;;;;2.70;1.73;;;;;;;1.85;nan;93106.28;4936376;28;20246;-69
2020/12/29 00:55:27;;;;;;;1.70;1.30;;;;;;;1.86;nan;93107.91;4937412;28;20286;-68
2020/12/29 00:57:53;;;;;;;2.17;1.23;;;;;;;1.89;nan;93099.97;4936355;28;20588;-67
2020/12/29 01:00:21;;;;;;;1.23;1.10;;;;;;;1.90;nan;93114.41;4937373;28;20697;-68
2020/12/29 01:02:48;;;;;;;3.42;2.40;;;;;;;1.88;nan;93105.22;4936656;28;20840;-67
2020/12/29 01:05:16;;;;;;;2.50;1.88;;;;;;;1.92;nan;93094.56;4936910;28;20617;-67
2020/12/29 01:07:43;;;;;;;2.92;1.70;;;;;;;1.98;nan;93126.59;4936687;28;20317;-66
2020/12/29 01:10:10;;;;;;;3.40;1.90;;;;;;;1.93;nan;93118.47;4937433;28;20273;-67
2020/12/29 01:12:37;;;;;;;3.58;2.30;;;;;;;1.89;nan;93122.22;4937248;28;20733;-67
2020/12/29 01:15:04;;;;;;;2.55;1.30;;;;;;;1.84;nan;93119.25;4939083;28;20779;-67
2020/12/29 01:17:31;;;;;;;2.55;1.92;;;;;;;1.78;nan;93125.69;4935975;28;20776;-67
2020/12/29 01:19:58;;;;;;;10.07;1.95;;;;;;;1.82;nan;93132.19;4937234;28;20195;-67
2020/12/29 01:22:25;;;;;;;5.72;1.42;;;;;;;1.78;nan;93138.50;4937183;28;20259;-67
2020/12/29 01:24:52;;;;;;;2.15;1.60;;;;;;;1.76;nan;93137.81;4937094;28;20282;-67
2020/12/29 01:27:18;;;;;;;2.83;1.75;;;;;;;1.75;nan;93140.50;4936358;28;20231;-69
2020/12/29 01:29:45;;;;;;;1.98;1.40;;;;;;;1.80;nan;93144.31;4935915;28;20283;-67
2020/12/29 01:32:12;;;;;;;2.70;2.25;;;;;;;1.80;nan;93144.31;4935848;28;20310;-67
2020/12/29 01:34:40;;;;;;;4.05;1.80;;;;;;;1.71;nan;93150.19;4930142;28;20638;-67
2020/12/29 01:37:06;;;;;;;3.25;1.75;;;;;;;1.69;nan;93162.31;4936137;28;20907;-66
2020/12/29 01:39:33;;;;;;;2.33;1.70;;;;;;;1.66;nan;93165.16;4936448;28;20286;-66
2020/12/29 01:42:00;;;;;;;2.45;1.85;;;;;;;1.62;nan;93161.22;4936069;28;20326;-67
2020/12/29 01:44:27;;;;;;;4.25;1.95;;;;;;;1.59;nan;93161.47;4936095;28;20205;-67
2020/12/29 01:46:54;;;;;;;2.85;2.00;;;;;;;1.56;nan;93156.59;4937766;28;20238;-67
2020/12/29 01:49:20;;;;;;;4.10;2.13;;;;;;;1.58;nan;93154.75;4937430;28;20230;-67
2020/12/29 01:51:48;;;;;;;4.30;2.63;;;;;;;1.57;nan;93152.28;4935772;28;20541;-67
2020/12/29 01:54:15;;;;;;;2.47;1.73;;;;;;;1.59;nan;93153.78;4935550;28;20269;-67
2020/12/29 01:56:42;;;;;;;2.30;2.10;;;;;;;1.58;nan;93153.91;4936639;28;20241;-67
2020/12/29 01:59:12;;;;;;;2.38;2.17;;;;;;;1.60;nan;93147.72;4936218;28;20225;-67
2020/12/29 02:01:40;;;;;;;3.67;1.65;;;;;;;1.63;nan;93150.03;4933198;28;20489;-67
2020/12/29 02:04:08;;;;;;;2.30;2.10;;;;;;;1.60;nan;93149.47;4935507;28;20527;-67
2020/12/29 02:06:37;;;;;;;2.05;1.35;;;;;;;1.64;nan;93143.94;4936501;28;20725;-67
2020/12/29 02:09:07;;;;;;;1.98;1.48;;;;;;;1.66;nan;93152.34;4936270;28;20264;-66
2020/12/29 02:11:34;;;;;;;2.78;1.80;;;;;;;1.57;nan;93155.69;4936351;28;20223;-68
2020/12/29 02:14:01;;;;;;;3.08;1.50;;;;;;;1.55;nan;93167.78;4935985;28;20689;-67
2020/12/29 02:16:28;;;;;;;1.33;1.23;;;;;;;1.56;nan;93177.09;4937720;28;20761;-69
2020/12/29 02:18:55;;;;;;;2.10;1.60;;;;;;;1.50;nan;93164.81;4933388;28;20206;-69
2020/12/29 02:21:22;;;;;;;4.32;1.60;;;;;;;1.47;nan;93167.59;4935327;28;20782;-68
2020/12/29 02:23:50;;;;;;;1.85;1.40;;;;;;;1.57;nan;93189.00;4935818;28;20645;-68
2020/12/29 02:26:30;;;;;;;1.30;1.15;;;;;;;1.57;nan;93165.94;4936811;28;20230;-68
2020/12/29 02:28:59;;;;;;;2.65;1.80;;;;;;;1.61;nan;93176.75;4931779;28;20586;-70
2020/12/29 02:31:26;;;;;;;2.42;1.67;;;;;;;1.63;nan;93170.53;4936706;28;20310;-70
2020/12/29 02:33:53;;;;;;;4.65;1.60;;;;;;;1.63;nan;93173.09;4937121;28;20303;-69
2020/12/29 02:36:20;;;;;;;2.10;1.90;;;;;;;1.58;nan;93177.78;4935554;28;20290;-68
2020/12/29 02:38:47;;;;;;;3.17;1.65;;;;;;;1.61;nan;93176.75;4936755;28;20759;-70
2020/12/29 02:41:15;;;;;;;1.83;1.45;;;;;;;1.71;nan;93173.25;4935544;28;20257;-70
2020/12/29 02:43:42;;;;;;;4.28;1.80;;;;;;;1.75;nan;93182.31;4936217;28;20640;-68
2020/12/29 02:46:12;;;;;;;2.78;1.35;;;;;;;1.74;nan;93183.28;4931158;28;20598;-66
2020/12/29 02:48:39;;;;;;;2.60;1.50;;;;;;;1.73;nan;93184.22;4939169;28;20526;-67
2020/12/29 02:51:06;;;;;;;1.80;1.70;;;;;;;1.79;nan;93178.59;4942944;28;20583;-68
2020/12/29 02:53:33;;;;;;;3.05;1.58;;;;;;;1.87;nan;93183.88;4940637;28;20199;-66
2020/12/29 02:56:00;;;;;;;2.40;1.30;;;;;;;1.92;nan;93194.53;4940741;28;20270;-67
2020/12/29 02:58:28;;;;;;;1.90;1.20;;;;;;;1.93;nan;93201.28;4939919;28;20252;-68
2020/12/29 03:00:55;;;;;;;2.67;1.13;;;;;;;1.95;nan;93203.72;4939960;28;20200;-68
2020/12/29 03:03:22;;;;;;;2.50;1.25;;;;;;;1.94;nan;93202.13;4938509;28;20730;-68
2020/12/29 03:05:48;;;;;;;1.95;1.52;;;;;;;1.90;nan;93200.72;4940066;28;20291;-68
2020/12/29 03:08:15;;;;;;;2.72;1.63;;;;;;;1.89;nan;93199.13;4939520;28;20219;-68
2020/12/29 03:10:43;;;;;;;1.10;0.95;;;;;;;1.89;nan;93204.25;4941554;28;20195;-69
2020/12/29 03:13:10;;;;;;;1.25;0.95;;;;;;;1.95;nan;93209.69;4933118;28;20248;-68
2020/12/29 03:15:38;;;;;;;1.85;1.02;;;;;;;2.01;nan;93211.75;4940188;28;20211;-69
2020/12/29 03:18:04;;;;;;;0.82;0.63;;;;;;;2.08;nan;93217.16;4937929;28;20733;-69
2020/12/29 03:20:31;;;;;;;0.75;0.65;;;;;;;2.09;nan;93231.59;4939577;28;20199;-69
2020/12/29 03:22:58;;;;;;;0.60;0.50;;;;;;;2.13;nan;93245.81;4939379;28;20306;-69
2020/12/29 03:25:25;;;;;;;1.50;1.40;;;;;;;2.10;nan;93243.47;4939049;28;20697;-69
2020/12/29 03:27:51;;;;;;;2.88;0.70;;;;;;;2.15;nan;93246.50;4938425;28;20591;-68
2020/12/29 03:30:18;;;;;;;0.80;0.70;;;;;;;2.13;nan;93245.81;4938690;28;20709;-69
2020/12/29 03:32:46;;;;;;;1.67;0.60;;;;;;;2.12;nan;93244.16;4938852;28;20666;-70
2020/12/29 03:35:13;;;;;;;6.47;0.60;;;;;;;2.17;nan;93248.00;4939240;28;20603;-69
2020/12/29 03:37:40;;;;;;;0.60;0.50;;;;;;;2.20;nan;93264.88;4938639;28;20224;-68
2020/12/29 03:40:06;;;;;;;0.70;0.50;;;;;;;2.18;nan;93257.31;4939157;28;20229;-69
2020/12/29 03:42:33;;;;;;;0.70;0.50;;;;;;;2.18;nan;93252.16;4937648;28;20261;-68
2020/12/29 03:45:00;;;;;;;0.73;0.45;;;;;;;2.19;nan;93253.78;4938410;28;20649;-68
2020/12/29 03:47:30;;;;;;;1.42;0.60;;;;;;;2.18;nan;93259.03;4938584;28;20321;-70
2020/12/29 03:49:57;;;;;;;0.80;0.50;;;;;;;2.21;nan;93259.59;4933213;28;20305;-68
2020/12/29 03:52:24;;;;;;;0.60;0.50;;;;;;;2.21;nan;93259.59;4939620;28;20650;-69
2020/12/29 03:54:51;;;;;;;0.82;0.50;;;;;;;2.24;nan;93261.94;4937572;28;20278;-68
2020/12/29 03:57:18;;;;;;;0.50;0.40;;;;;;;2.22;nan;93268.91;4938096;28;20436;-68
2020/12/29 03:59:44;;;;;;;0.65;0.50;;;;;;;2.27;nan;93271.13;4941923;28;20202;-68
2020/12/29 04:02:12;;;;;;;0.60;0.40;;;;;;;2.30;nan;93268.28;4938065;28;20525;-69
2020/12/29 04:04:38;;;;;;;0.50;0.40;;;;;;;2.33;nan;93278.28;4943179;28;20640;-70
2020/12/29 04:07:06;;;;;;;0.60;0.40;;;;;;;2.33;nan;93276.53;4937629;28;20259;-69
2020/12/29 04:09:33;;;;;;;6.28;0.70;;;;;;;2.47;nan;93283.91;4938464;28;20254;-69
2020/12/29 04:12:00;;;;;;;1.85;0.73;;;;;;;2.50;nan;93280.25;4938540;28;20267;-71
2020/12/29 04:14:27;;;;;;;0.90;0.50;;;;;;;2.48;nan;93292.38;4939952;28;20621;-69
2020/12/29 04:16:55;;;;;;;0.60;0.40;;;;;;;2.47;nan;93277.94;4945244;28;20223;-69
2020/12/29 04:19:21;;;;;;;0.70;0.50;;;;;;;2.46;nan;93272.00;4937412;28;20709;-71
2020/12/29 04:21:48;;;;;;;0.68;0.55;;;;;;;2.44;nan;93268.75;4938270;28;20259;-69
2020/12/29 04:24:16;;;;;;;0.60;0.40;;;;;;;2.41;nan;93283.56;4938005;28;20693;-71
2020/12/29 04:26:43;;;;;;;0.82;0.60;;;;;;;2.36;nan;93271.13;4937157;28;20853;-69
2020/12/29 04:29:10;;;;;;;1.15;0.43;;;;;;;2.37;nan;93259.94;4939108;28;20242;-69
2020/12/29 04:31:37;;;;;;;0.82;0.52;;;;;;;2.38;nan;93268.47;4936264;28;20302;-69
2020/12/29 04:34:04;;;;;;;2.45;0.50;;;;;;;2.37;nan;93283.03;4939431;28;20282;-69
2020/12/29 04:36:31;;;;;;;0.93;0.50;;;;;;;2.36;nan;93281.41;4937829;28;20302;-69
2020/12/29 04:38:57;;;;;;;2.58;0.50;;;;;;;2.41;nan;93293.84;4937126;28;20694;-69
2020/12/29 04:41:25;;;;;;;3.08;0.60;;;;;;;2.39;nan;93295.72;4936954;28;20306;-69
2020/12/29 04:43:55;;;;;;;0.70;0.40;;;;;;;2.28;nan;93304.31;4937637;28;20615;-69
2020/12/29 04:46:22;;;;;;;0.50;0.40;;;;;;;2.43;nan;93317.66;4937879;28;20788;-69
2020/12/29 04:48:49;;;;;;;2.10;0.43;;;;;;;2.46;nan;93313.06;4937396;28;20801;-68
2020/12/29 04:51:16;;;;;;;1.80;0.60;;;;;;;2.51;nan;93321.19;4938059;28;20238;-68
2020/12/29 04:53:59;;;;;;;1.15;0.47;;;;;;;2.59;nan;93318.78;4938233;28;20294;-68
2020/12/29 04:56:32;;;;;;;0.70;0.55;;;;;;;2.62;nan;93323.66;4937135;28;20739;-68
2020/12/29 04:58:59;;;;;;;2.00;0.60;;;;;;;2.65;nan;93338.00;4937607;28;20211;-68
2020/12/29 05:01:30;;;;;;;1.02;0.60;;;;;;;2.65;nan;93343.13;4937845;28;20235;-69
2020/12/29 05:04:00;;;;;;;0.80;0.50;;;;;;;2.65;nan;93341.38;4938796;28;20843;-69
2020/12/29 05:06:26;;;;;;;2.45;0.60;;;;;;;2.68;nan;93341.13;4936320;28;20633;-69
2020/12/29 05:08:54;;;;;;;0.80;0.50;;;;;;;2.67;nan;93347.22;4937625;28;20196;-69
2020/12/29 05:11:23;;;;;;;1.13;0.45;;;;;;;2.63;nan;93345.81;4936597;28;20979;-68
2020/12/29 05:13:51;;;;;;;0.65;0.50;;;;;;;2.64;nan;93354.34;4937246;28;20634;-68
2020/12/29 05:16:18;;;;;;;0.60;0.50;;;;;;;2.64;nan;93355.16;4936717;28;20290;-68
2020/12/29 05:18:45;;;;;;;3.17;0.50;;;;;;;2.64;nan;93360.28;4936080;28;20803;-69
2020/12/29 05:21:12;;;;;;;1.00;0.50;;;;;;;2.59;nan;93359.03;4934576;28;20200;-69
2020/12/29 05:23:39;;;;;;;2.25;0.50;;;;;;;2.55;nan;93373.88;4934449;28;20793;-68
2020/12/29 05:26:06;;;;;;;0.55;0.40;;;;;;;2.51;nan;93372.50;4935242;28;20199;-69
2020/12/29 05:28:34;;;;;;;0.80;0.50;;;;;;;2.50;nan;93370.88;4938282;28;20658;-68
2020/12/29 05:31:03;;;;;;;2.83;0.47;;;;;;;2.51;nan;93395.59;4936525;28;20241;-68
2020/12/29 05:33:30;;;;;;;0.60;0.50;;;;;;;2.51;nan;93375.06;4936205;28;20310;-69
2020/12/29 05:35:58;;;;;;;0.70;0.50;;;;;;;2.48;nan;93397.59;4932250;28;20274;-68
2020/12/29 05:38:25;;;;;;;0.50;0.40;;;;;;;2.49;nan;93389.00;4935707;28;20935;-69
2020/12/29 05:40:52;;;;;;;3.25;0.60;;;;;;;2.46;nan;93400.31;4938993;28;20515;-69
2020/12/29 05:43:27;;;;;;;2.55;0.60;;;;;;;2.46;nan;93400.31;4935923;28;20318;-69
2020/12/29 05:45:57;;;;;;;0.50;0.40;;;;;;;2.43;nan;93405.69;4940959;28;20256;-68
2020/12/29 05:48:25;;;;;;;0.70;0.50;;;;;;;2.41;nan;93417.81;4936558;28;20767;-69
2020/12/29 05:50:51;;;;;;;0.60;0.45;;;;;;;2.42;nan;93414.31;4936187;28;20206;-69
2020/12/29 05:53:20;;;;;;;0.50;0.40;;;;;;;2.44;nan;93424.47;4936842;28;20346;-68
2020/12/29 05:55:47;;;;;;;1.60;0.50;;;;;;;2.42;nan;93424.59;4938818;28;20286;-68
2020/12/29 05:58:15;;;;;;;2.25;0.57;;;;;;;2.41;nan;93433.22;4935511;28;20771;-69
2020/12/29 06:00:42;;;;;;;0.80;0.50;;;;;;;2.40;nan;93441.88;4937019;28;20191;-68
2020/12/29 06:03:09;;;;;;;1.60;0.47;;;;;;;2.44;nan;93416.78;4937278;28;20342;-69
2020/12/29 06:05:38;;;;;;;1.70;0.50;;;;;;;2.47;nan;93427.59;4935815;28;20730;-69
2020/12/29 06:08:07;;;;;;;0.60;0.50;;;;;;;2.45;nan;93439.75;4935343;28;20223;-68
2020/12/29 06:10:35;;;;;;;0.60;0.50;;;;;;;2.46;nan;93450.81;4935804;28;20222;-68
2020/12/29 06:13:04;;;;;;;1.20;0.50;;;;;;;2.49;nan;93448.81;4936428;28;20250;-68
2020/12/29 06:15:33;;;;;;;1.88;0.57;;;;;;;2.49;nan;93461.63;4936103;28;20350;-68
2020/12/29 06:18:01;;;;;;;0.60;0.50;;;;;;;2.48;nan;93470.28;4939066;28;20269;-68
2020/12/29 06:20:37;;;;;;;0.60;0.50;;;;;;;2.45;nan;93485.94;4936952;28;20589;-67
2020/12/29 06:23:06;;;;;;;0.95;0.50;;;;;;;2.45;nan;93485.09;4936895;28;20227;-66
2020/12/29 06:25:35;;;;;;;1.02;0.60;;;;;;;2.37;nan;93478.00;4941476;28;20545;-67
2020/12/29 06:28:04;;;;;;;0.68;0.50;;;;;;;2.41;nan;93502.50;4947891;28;20258;-67
2020/12/29 06:30:33;;;;;;;1.67;0.50;;;;;;;2.41;nan;93512.75;4939447;28;20207;-68
2020/12/29 06:33:01;;;;;;;2.65;0.50;;;;;;;2.39;nan;93509.53;4939659;28;20590;-68
2020/12/29 06:35:28;;;;;;;0.50;0.40;;;;;;;2.43;nan;93513.44;4939588;28;20277;-67
2020/12/29 06:38:10;;;;;;;0.57;0.40;;;;;;;2.45;nan;93524.44;4938625;28;20619;-67
2020/12/29 06:40:37;;;;;;;3.80;0.50;;;;;;;2.51;nan;93526.47;4939929;28;20650;-67
2020/12/29 06:43:07;;;;;;;1.40;0.60;;;;;;;2.51;nan;93521.34;4938354;28;20239;-66
2020/12/29 06:45:37;;;;;;;1.00;0.55;;;;;;;2.53;nan;93528.94;4940218;28;20210;-68
2020/12/29 06:48:16;;;;;;;0.60;0.40;;;;;;;2.54;nan;93540.81;4939982;28;20621;-68
2020/12/29 06:50:43;;;;;;;0.60;0.40;;;;;;;2.52;nan;93548.66;4934791;28;20196;-66
2020/12/29 06:53:15;;;;;;;0.70;0.50;;;;;;;2.59;nan;93554.09;4942370;28;20669;-67
2020/12/29 06:55:44;;;;;;;0.60;0.47;;;;;;;2.57;nan;93561.91;4930504;28;20504;-66
2020/12/29 06:58:28;;;;;;;0.90;0.50;;;;;;;2.59;nan;93569.50;4936492;28;20752;-66
2020/12/29 07:01:22;;;;;;;1.98;0.60;;;;;;;2.60;nan;93571.97;4939166;28;20963;-67
2020/12/29 07:04:00;;;;;;;0.60;0.50;;;;;;;2.62;nan;93579.53;4942345;28;20688;-67
2020/12/29 07:06:28;;;;;;;0.65;0.43;;;;;;;2.60;nan;93587.38;4949997;28;20605;-66
2020/12/29 07:09:24;;;;;;;0.77;0.50;;;;;;;2.64;nan;93596.44;4938634;28;20331;-66
2020/12/29 07:12:03;;;;;;;0.70;0.50;;;;;;;2.65;nan;93605.75;4940968;28;20260;-66
2020/12/29 07:14:32;;;;;;;1.33;0.85;;;;;;;2.70;nan;93619.06;4938402;28;20196;-67
2020/12/29 07:16:59;;;;;;;0.70;0.50;;;;;;;2.71;nan;93630.94;4935712;28;20317;-67
2020/12/29 07:19:28;;;;;;;1.40;0.65;;;;;;;2.75;nan;93647.75;4939073;28;20207;-66
2020/12/29 07:21:55;;;;;;;2.25;0.60;;;;;;;2.74;nan;93638.44;4937940;28;20732;-67
2020/12/29 07:24:28;;;;;;;2.67;1.25;;;;;;;2.72;nan;93658.25;4939059;28;20242;-67
2020/12/29 07:26:56;;;;;;;2.15;0.95;;;;;;;2.83;nan;93665.09;4937590;28;20220;-67
2020/12/29 07:29:23;;;;;;;1.67;0.50;;;;;;;2.81;nan;93670.34;4939014;28;20750;-66
2020/12/29 07:31:50;;;;;;;3.80;0.70;;;;;;;2.89;nan;93670.59;4938412;28;20708;-67
2020/12/29 07:34:17;;;;;;;2.05;0.70;;;;;;;2.75;nan;93686.28;4939795;28;20763;-66
2020/12/29 07:36:47;;;;;;;1.45;0.65;;;;;;;2.77;nan;93688.69;4937728;28;20798;-67
2020/12/29 07:39:15;;;;;;;3.42;0.65;;;;;;;2.73;nan;93690.69;4938190;28;20235;-67
2020/12/29 07:41:43;;;;;;;1.00;0.60;;;;;;;2.63;nan;93714.63;4937953;28;20701;-67
2020/12/29 07:44:10;;;;;;;4.68;0.60;;;;;;;2.66;nan;93706.69;4935348;28;20322;-67
2020/12/29 07:46:37;;;;;;;0.70;0.60;;;;;;;2.58;nan;93717.56;4938688;28;20231;-67
2020/12/29 07:49:05;;;;;;;0.70;0.52;;;;;;;2.64;nan;93726.56;4938453;28;20349;-68
2020/12/29 07:51:45;;;;;;;0.60;0.40;;;;;;;2.60;nan;93736.25;4942239;28;20262;-67
2020/12/29 07:54:12;;;;;;;1.63;0.70;;;;;;;2.54;nan;93744.41;4939335;28;20307;-67
2020/12/29 07:56:39;;;;;;;1.00;0.60;;;;;;;2.47;nan;93748.38;4935112;28;20228;-66
2020/12/29 07:59:10;;;;;;;0.85;0.50;;;;;;;2.40;nan;93739.50;4935113;28;20267;-68
2020/12/29 08:01:51;;;;;;;0.60;0.50;;;;;;;2.48;nan;93762.84;4939316;28;20686;-68
2020/12/29 08:04:31;;;;;;;2.45;1.10;;;;;;;2.48;nan;93765.41;4939367;28;20235;-68
2020/12/29 08:06:58;;;;;;;1.15;0.88;;;;;;;2.52;nan;93778.81;4939682;28;20601;-69
2020/12/29 08:09:25;;;;;;;1.05;0.60;;;;;;;2.50;nan;93780.69;4939710;28;20215;-68
2020/12/29 08:12:01;;;;;;;0.70;0.57;;;;;;;2.54;nan;93776.94;4944320;28;20448;-67
2020/12/29 08:14:40;;;;;;;1.15;0.50;;;;;;;2.58;nan;93788.63;4943827;28;20286;-68
2020/12/29 08:17:08;;;;;;;11.93;3.78;;;;;;;2.57;nan;93799.81;4936330;28;20707;-68
2020/12/29 08:19:35;;;;;;;7.05;2.92;;;;;;;2.53;nan;93801.81;4937169;28;20211;-67
2020/12/29 08:22:06;;;;;;;4.80;2.20;;;;;;;2.62;nan;93811.38;4938118;28;20713;-68
2020/12/29 08:24:34;;;;;;;6.85;2.42;;;;;;;2.72;nan;93822.56;4938409;28;20699;-67
2020/12/29 08:27:01;;;;;;;1.60;0.90;;;;;;;2.62;nan;93829.34;4939650;28;20223;-68
2020/12/29 08:29:30;;;;;;;1.95;1.15;;;;;;;2.65;nan;93836.78;4938399;28;20314;-67
2020/12/29 08:32:06;;;;;;;0.95;0.65;;;;;;;2.70;nan;93836.44;4932033;28;20309;-67
2020/12/29 08:34:34;;;;;;;1.23;0.90;;;;;;;2.61;nan;93847.41;4931731;28;20731;-67
2020/12/29 08:37:02;;;;;;;8.55;3.08;;;;;;;2.56;nan;93858.03;4937718;28;20314;-67
2020/12/29 08:40:04;;;;;;;6.18;2.63;;;;;;;2.53;nan;93860.84;4939907;28;20665;-67
2020/12/29 08:42:34;;;;;;;6.78;1.52;;;;;;;2.56;nan;93868.28;4921833;28;20612;-68
2020/12/29 08:45:07;;;;;;;1.90;0.65;;;;;;;2.61;nan;93867.94;4937978;28;20203;-67
2020/12/29 08:47:35;;;;;;;1.15;0.88;;;;;;;2.57;nan;93869.13;4936872;28;20227;-67
2020/12/29 08:50:21;;;;;;;0.70;0.70;;;;;;;2.60;nan;93882.56;4943994;28;20215;-67
2020/12/29 08:52:53;;;;;;;0.85;0.80;;;;;;;2.69;nan;93893.84;4935597;28;20629;-67
2020/12/29 08:55:28;;;;;;;4.40;2.35;;;;;;;2.77;nan;93902.63;4936997;28;20285;-67
2020/12/29 08:57:56;;;;;;;5.90;2.15;;;;;;;2.80;nan;93904.97;4938108;28;20693;-67
2020/12/29 09:00:24;;;;;;;1.67;0.70;;;;;;;2.92;nan;93914.31;4938614;28;20657;-67
2020/12/29 09:02:52;;;;;;;1.00;0.60;;;;;;;2.99;nan;93918.06;4939243;28;20333;-67
2020/12/29 09:05:23;;;;;;;0.70;0.60;;;;;;;3.08;nan;93935.34;4937587;28;20294;-68
2020/12/29 09:07:50;;;;;;;3.47;1.95;;;;;;;3.09;nan;93943.88;4936700;28;20306;-67
2020/12/29 09:10:18;;;;;;;1.17;0.90;;;;;;;3.08;nan;93948.19;4937495;28;20258;-68
2020/12/29 09:12:45;;;;;;;0.98;0.70;;;;;;;3.08;nan;93945.59;4936902;28;20668;-67
2020/12/29 09:15:13;;;;;;;1.65;1.00;;;;;;;3.18;nan;93951.72;4940598;28;20214;-67
2020/12/29 09:17:42;;;;;;;0.80;0.70;;;;;;;3.14;nan;93963.13;4940094;28;20228;-68
2020/12/29 09:20:19;;;;;;;1.77;0.95;;;;;;;3.30;nan;93961.03;4936642;28;20199;-68
2020/12/29 09:23:00;;;;;;;1.73;1.00;;;;;;;3.28;nan;93969.78;4935519;28;20301;-68
2020/12/29 09:25:36;;;;;;;0.65;0.50;;;;;;;3.29;nan;93979.97;4936623;28;20198;-68
2020/12/29 09:28:18;;;;;;;0.93;0.40;;;;;;;3.33;nan;93983.94;4932594;28;20691;-68
2020/12/29 09:30:47;;;;;;;1.00;0.50;;;;;;;3.37;nan;93994.81;4936280;28;20286;-68
2020/12/29 09:33:20;;;;;;;0.70;0.60;;;;;;;3.32;nan;93992.56;4937712;28;20311;-68
2020/12/29 09:35:49;;;;;;;1.50;0.50;;;;;;;3.14;nan;93991.41;4936193;28;20227;-68
2020/12/29 09:38:17;;;;;;;0.70;0.60;;;;;;;3.16;nan;93999.81;4935392;28;20733;-68
2020/12/29 09:40:56;;;;;;;0.68;0.55;;;;;;;3.28;nan;94029.72;4938114;28;20494;-69
2020/12/29 09:43:23;;;;;;;0.70;0.65;;;;;;;3.21;nan;94030.28;4936597;28;20234;-69
2020/12/29 09:45:50;;;;;;;1.27;0.50;;;;;;;3.07;nan;94051.88;4940342;28;20200;-69
2020/12/29 09:48:18;;;;;;;5.18;3.00;;;;;;;3.06;nan;94055.38;4930414;28;20271;-68
2020/12/29 09:50:45;;;;;;;0.93;0.60;;;;;;;3.02;nan;94058.28;4936755;28;20641;-68
2020/12/29 09:53:13;;;;;;;0.70;0.50;;;;;;;2.99;nan;94066.22;4936062;28;20238;-68
2020/12/29 09:55:40;;;;;;;0.82;0.60;;;;;;;3.01;nan;94080.59;4933321;28;20710;-68
2020/12/29 09:58:07;;;;;;;2.60;0.75;;;;;;;3.10;nan;94086.81;4936043;28;20549;-68
2020/12/29 10:00:35;;;;;;;0.70;0.60;;;;;;;3.26;nan;94095.03;4936074;28;20289;-68
2020/12/29 10:03:02;;;;;;;1.75;0.65;;;;;;;3.22;nan;94104.69;4938640;28;20231;-69
2020/12/29 10:05:29;;;;;;;1.38;0.85;;;;;;;3.15;nan;94106.09;4935813;28;20642;-69
2020/12/29 10:07:56;;;;;;;0.70;0.60;;;;;;;3.10;nan;94108.16;4935955;28;20228;-68
2020/12/29 10:10:23;;;;;;;1.10;0.70;;;;;;;3.11;nan;94106.44;4936696;28;20322;-69
2020/12/29 10:12:50;;;;;;;1.50;0.50;;;;;;;3.12;nan;94108.06;4938460;28;20688;-69
2020/12/29 10:15:18;;;;;;;0.60;0.50;;;;;;;3.14;nan;94112.16;4940586;28;20579;-69
2020/12/29 10:17:45;;;;;;;2.38;0.50;;;;;;;3.14;nan;94116.47;4945274;28;20557;-68
2020/12/29 10:20:11;;;;;;;1.08;0.65;;;;;;;3.30;nan;94117.81;4944368;28;20529;-69
2020/12/29 10:22:38;;;;;;;0.70;0.57;;;;;;;3.55;nan;94120.22;4936215;28;20562;-69
2020/12/29 10:25:05;;;;;;;0.90;0.60;;;;;;;3.80;nan;94132.03;4936074;28;20267;-69
2020/12/29 10:27:33;;;;;;;1.90;0.60;;;;;;;3.95;nan;94131.69;4934223;28;20565;-69
2020/12/29 10:30:00;;;;;;;1.38;0.50;;;;;;;4.08;nan;94137.56;4936274;28;20249;-69
2020/12/29 10:32:27;;;;;;;0.65;0.50;;;;;;;4.10;nan;94145.97;4934217;28;20787;-69
2020/12/29 10:34:54;;;;;;;3.70;1.70;;;;;;;4.09;nan;94145.16;4941906;28;20618;-69
2020/12/29 10:37:20;;;;;;;1.00;0.70;;;;;;;4.00;nan;94142.47;4935588;28;20314;-69
2020/12/29 10:39:47;;;;;;;1.08;0.70;;;;;;;4.21;nan;94149.34;4935612;28;20293;-69
2020/12/29 10:42:14;;;;;;;0.90;0.60;;;;;;;4.31;nan;94162.34;4934994;28;20870;-69
2020/12/29 10:44:41;;;;;;;1.00;0.77;;;;;;;4.16;nan;94171.25;4936444;28;20242;-69
2020/12/29 10:47:08;;;;;;;1.05;0.60;;;;;;;4.07;nan;94171.94;4934791;28;20693;-69
2020/12/29 10:49:35;;;;;;;1.75;0.93;;;;;;;4.05;nan;94171.22;4934433;28;20598;-69
2020/12/29 10:52:02;;;;;;;1.30;0.70;;;;;;;3.98;nan;94188.06;4934936;28;20449;-69
2020/12/29 10:54:29;;;;;;;1.10;0.80;;;;;;;3.96;nan;94187.34;4942661;28;20777;-69
2020/12/29 10:56:56;;;;;;;1.30;0.65;;;;;;;3.78;nan;94180.19;4944238;28;20304;-68
2020/12/29 10:59:23;;;;;;;1.73;0.73;;;;;;;3.75;nan;94190.72;4937536;28;20661;-68
2020/12/29 11:01:55;;;;;;;2.20;1.13;;;;;;;3.72;nan;94186.63;4941955;28;20229;-68
2020/12/29 11:04:23;;;;;;;2.65;0.95;;;;;;;3.71;nan;94177.28;4938708;28;20560;-68
2020/12/29 11:06:50;;;;;;;1.10;0.70;;;;;;;3.69;nan;94186.88;4936025;28;20233;-69
2020/12/29 11:09:17;;;;;;;1.65;0.70;;;;;;;3.56;nan;94193.00;4938251;28;20690;-69
2020/12/29 11:11:44;;;;;;;0.75;0.60;;;;;;;3.51;nan;94198.50;4939527;28;20319;-69
2020/12/29 11:14:11;;;;;;;0.80;0.60;;;;;;;3.49;nan;94202.94;4939411;28;20281;-68
2020/12/29 11:16:37;;;;;;;1.90;0.90;;;;;;;3.50;nan;94206.31;4934090;28;20567;-68
2020/12/29 11:19:05;;;;;;;1.85;0.70;;;;;;;3.50;nan;94211.44;4941319;28;20584;-69
2020/12/29 11:21:32;;;;;;;1.15;0.90;;;;;;;3.59;nan;94216.75;4938152;28;20234;-69
2020/12/29 11:23:59;;;;;;;2.53;1.00;;;;;;;3.70;nan;94224.50;4939276;28;20536;-69
2020/12/29 11:26:26;;;;;;;2.08;0.65;;;;;;;3.61;nan;94214.88;4939874;28;20627;-69
2020/12/29 11:28:53;;;;;;;1.10;0.63;;;;;;;3.51;nan;94229.34;4940073;28;20714;-69
2020/12/29 11:31:21;;;;;;;2.03;0.90;;;;;;;3.48;nan;94224.44;4939580;28;20727;-69
2020/12/29 11:33:49;;;;;;;1.38;0.70;;;;;;;3.44;nan;94232.47;4939082;28;20957;-68
2020/12/29 11:36:18;;;;;;;6.60;1.00;;;;;;;3.40;nan;94219.03;4938296;28;20551;-68
2020/12/29 11:38:46;;;;;;;1.83;1.15;;;;;;;3.44;nan;94207.59;4939291;28;20227;-69
2020/12/29 11:41:14;;;;;;;2.22;0.90;;;;;;;3.49;nan;94227.81;4937613;28;20693;-70
2020/12/29 11:43:41;;;;;;;2.90;0.82;;;;;;;3.61;nan;94222.59;4937151;28;20837;-69
2020/12/29 11:46:09;;;;;;;4.00;0.90;;;;;;;3.76;nan;94218.88;4937305;28;20839;-69
2020/12/29 11:48:36;;;;;;;1.98;0.70;;;;;;;3.90;nan;94231.56;4939174;28;20275;-69
2020/12/29 11:51:03;;;;;;;8.20;0.95;;;;;;;3.99;nan;94230.88;4937930;28;20613;-69
2020/12/29 11:53:32;;;;;;;6.10;2.70;;;;;;;4.03;nan;94234.84;4940215;28;20235;-69
2020/12/29 11:55:59;;;;;;;3.15;1.38;;;;;;;4.16;nan;94238.16;4940673;28;20282;-69
2020/12/29 11:58:26;;;;;;;1.30;0.63;;;;;;;4.32;nan;94243.78;4943861;28;20313;-69
2020/12/29 12:00:53;;;;;;;1.73;1.00;;;;;;;4.50;nan;94237.25;4947499;28;20203;-69
2020/12/29 12:03:23;;;;;;;2.25;0.80;;;;;;;4.43;nan;94228.34;4937711;28;20230;-69
2020/12/29 12:05:50;;;;;;;1.20;0.63;;;;;;;4.37;nan;94233.97;4941416;28;20316;-68